Time;durP1;ratioP1;P1;durP2;ratioP2;P2;SDS_P1;SDS_P2;PMS_P1;PMS_P2;Temp;Humidity;BMP_temperature;BMP_pressure;BME280_temperature;BME280_humidity;BME280_pressure;Samples;Min_cycle;Max_cycle;Signal;HPM_P1;HPM_P2
2023/10/10 00:02:19;;;;;;;9.10;3.70;;;;;;;4.70;66.57;100707.16;108156;1254;61090;-69
2023/10/10 00:04:47;;;;;;;8.00;3.50;;;;;;;4.69;66.76;100707.48;108138;1254;60338;-69
2023/10/10 00:07:16;;;;;;;6.80;3.30;;;;;;;4.68;66.85;100703.76;108019;1254;72900;-69
2023/10/10 00:09:44;;;;;;;7.90;4.30;;;;;;;4.68;66.82;100698.30;108141;1258;72718;-69
2023/10/10 00:12:48;;;;;;;7.40;3.80;;;;;;;4.67;66.89;100698.63;108100;1254;72666;-69
2023/10/10 00:15:12;;;;;;;7.30;3.50;;;;;;;4.67;66.88;100697.90;108076;1254;60962;-69
2023/10/10 00:17:41;;;;;;;6.70;3.70;;;;;;;4.68;66.86;100699.08;108236;1254;60073;-69
2023/10/10 00:20:22;;;;;;;6.50;3.50;;;;;;;4.66;66.96;100701.00;108110;1254;73847;-69
2023/10/10 00:22:58;;;;;;;7.20;3.70;;;;;;;4.65;67.09;100699.27;108042;1254;71565;-69
2023/10/10 00:25:30;;;;;;;7.20;3.60;;;;;;;4.65;67.32;100696.30;108146;1254;72704;-69
2023/10/10 00:28:16;;;;;;;;;;;;;;;4.63;67.32;100703.52;108064;1254;60887;-69
2023/10/10 00:30:49;;;;;;;9.70;4.00;;;;;;;4.63;67.46;100707.52;108050;1254;59437;-69
2023/10/10 00:33:17;;;;;;;8.00;4.10;;;;;;;4.62;67.59;100708.20;108153;1254;73202;-69
2023/10/10 00:35:46;;;;;;;9.20;4.00;;;;;;;4.62;67.71;100713.02;108115;1254;73811;-68
2023/10/10 00:38:32;;;;;;;7.10;3.40;;;;;;;4.60;67.77;100717.23;108076;1257;71399;-69
2023/10/10 00:41:05;;;;;;;7.30;3.60;;;;;;;4.58;67.99;100716.29;108072;1254;60415;-69
2023/10/10 00:43:34;;;;;;;9.30;3.60;;;;;;;4.56;68.02;100717.59;108088;1254;60528;-69
2023/10/10 00:46:04;;;;;;;7.40;3.90;;;;;;;4.56;68.16;100719.63;108116;1254;73828;-69
2023/10/10 00:48:54;;;;;;;9.00;4.30;;;;;;;4.56;68.09;100716.68;107603;1257;72882;-68
2023/10/10 00:51:21;;;;;;;7.50;3.30;;;;;;;4.56;68.21;100715.19;107702;1257;71446;-69
2023/10/10 00:54:09;;;;;;;6.80;3.50;;;;;;;4.55;68.08;100713.45;107818;1257;60989;-70
2023/10/10 00:56:37;;;;;;;8.30;3.90;;;;;;;4.55;68.24;100715.08;107847;1261;60380;-69
2023/10/10 00:59:06;;;;;;;8.30;4.30;;;;;;;4.56;68.27;100713.80;107696;1256;73830;-69
2023/10/10 01:01:34;;;;;;;8.10;3.90;;;;;;;4.53;68.26;100713.13;107706;1257;72825;-69
2023/10/10 01:04:05;;;;;;;8.40;4.00;;;;;;;4.50;68.40;100715.26;107979;1260;71762;-70
2023/10/10 01:06:38;;;;;;;9.20;4.00;;;;;;;4.48;68.52;100713.24;107872;1257;60377;-69
2023/10/10 01:09:28;;;;;;;8.50;3.90;;;;;;;4.44;68.34;100714.08;107832;1256;59789;-69
2023/10/10 01:11:55;;;;;;;7.70;3.70;;;;;;;4.41;68.21;100711.78;107720;1257;73164;-69
2023/10/10 01:14:26;;;;;;;7.60;3.80;;;;;;;4.37;68.23;100712.55;108006;1257;72776;-70
2023/10/10 01:16:57;;;;;;;7.30;3.70;;;;;;;4.32;68.19;100715.00;107908;1257;71464;-69
2023/10/10 01:19:28;;;;;;;7.50;3.80;;;;;;;4.28;68.04;100710.30;107898;1254;60297;-69
2023/10/10 01:21:59;;;;;;;9.10;4.40;;;;;;;4.22;68.08;100710.45;108113;1254;60406;-69
2023/10/10 01:24:27;;;;;;;8.40;3.70;;;;;;;4.19;68.02;100711.50;108170;1254;72469;-68
2023/10/10 01:27:03;;;;;;;8.50;4.00;;;;;;;4.16;68.06;100716.67;108163;1254;71364;-68
2023/10/10 01:29:40;;;;;;;8.70;4.50;;;;;;;4.14;68.08;100720.45;108116;1254;70925;-69
2023/10/10 01:32:10;;;;;;;10.30;4.20;;;;;;;4.08;68.08;100720.73;108118;1254;59729;-68
2023/10/10 01:34:44;;;;;;;7.20;3.90;;;;;;;4.05;68.10;100723.42;108131;1254;61186;-69
2023/10/10 01:37:20;;;;;;;7.70;3.80;;;;;;;4.04;68.40;100725.21;108003;1254;73786;-69
2023/10/10 01:40:16;;;;;;;8.10;3.80;;;;;;;4.02;68.42;100727.35;108184;1254;72540;-69
2023/10/10 01:42:53;;;;;;;6.80;3.70;;;;;;;4.01;68.53;100726.04;108134;1254;72712;-69
2023/10/10 01:45:26;;;;;;;8.60;3.50;;;;;;;3.98;68.63;100726.63;108258;1254;60848;-69
2023/10/10 01:47:57;;;;;;;8.60;3.80;;;;;;;3.95;68.78;100726.71;108099;1254;60305;-68
2023/10/10 01:50:30;;;;;;;7.10;3.60;;;;;;;3.93;69.05;100728.59;108100;1253;72626;-70
2023/10/10 01:52:58;;;;;;;7.60;4.00;;;;;;;3.90;69.23;100732.45;108088;1254;71516;-68
2023/10/10 01:55:26;;;;;;;7.90;3.50;;;;;;;3.90;69.24;100739.02;108096;1254;72511;-68
2023/10/10 01:57:57;;;;;;;10.00;4.00;;;;;;;3.92;69.68;100740.88;108107;1257;60486;-69
2023/10/10 02:02:55;;;;;;;10.30;4.20;;;;;;;4.03;69.96;100736.73;108095;1254;72597;-69
2023/10/10 02:08:09;;;;;;;6.70;3.90;;;;;;;4.19;69.85;100731.38;108100;1254;72956;-69
2023/10/10 02:10:43;;;;;;;9.90;3.80;;;;;;;4.23;69.79;100728.55;107995;1254;60953;-70
2023/10/10 02:13:11;;;;;;;8.60;4.00;;;;;;;4.28;69.82;100721.13;108010;1254;60215;-69
2023/10/10 02:15:39;;;;;;;7.10;4.00;;;;;;;4.32;69.63;100723.51;108102;1254;72902;-69
2023/10/10 02:18:12;;;;;;;7.50;4.00;;;;;;;4.33;69.45;100725.25;108116;1254;74784;-69
2023/10/10 02:23:25;;;;;;;8.50;4.60;;;;;;;4.33;69.06;100725.86;108038;1254;60473;-68
2023/10/10 02:25:55;;;;;;;7.70;4.40;;;;;;;4.32;69.02;100724.11;108136;1254;59769;-68
2023/10/10 02:28:42;;;;;;;9.90;5.00;;;;;;;4.32;68.82;100726.60;108127;1254;73837;-69
2023/10/10 02:31:12;;;;;;;8.20;4.50;;;;;;;4.30;68.74;100727.98;108151;1254;72775;-70
2023/10/10 02:33:48;;;;;;;8.70;4.60;;;;;;;4.24;68.67;100724.31;108161;1257;70842;-70
2023/10/10 02:36:30;;;;;;;6.10;3.50;;;;;;;4.18;68.49;100726.01;108170;1254;61058;-69
2023/10/10 02:39:18;;;;;;;7.00;3.70;;;;;;;4.11;68.40;100724.02;108136;1254;60432;-68
2023/10/10 02:41:50;;;;;;;9.70;4.30;;;;;;;4.00;68.33;100723.84;108103;1254;74191;-68
2023/10/10 02:47:02;;;;;;;6.90;3.80;;;;;;;3.86;68.31;100724.27;108063;1254;72869;-68
2023/10/10 02:49:30;;;;;;;6.90;4.10;;;;;;;3.85;68.41;100724.39;108258;1254;61075;-68
2023/10/10 02:51:59;;;;;;;7.30;4.10;;;;;;;3.84;68.39;100723.98;108162;1254;60328;-68
2023/10/10 02:54:53;;;;;;;7.50;4.00;;;;;;;3.83;68.32;100725.61;108175;1254;74737;-68
2023/10/10 02:59:59;;;;;;;7.80;3.70;;;;;;;3.74;68.24;100716.83;108002;1256;72883;-69
2023/10/10 03:02:40;;;;;;;10.30;4.30;;;;;;;3.67;68.39;100715.70;107988;1257;60865;-69
2023/10/10 03:05:15;;;;;;;8.50;4.20;;;;;;;3.59;68.34;100718.77;108064;1254;60618;-69
2023/10/10 03:07:52;;;;;;;7.50;4.10;;;;;;;3.51;68.59;100716.30;107882;1254;71650;-70
2023/10/10 03:10:35;;;;;;;9.60;5.00;;;;;;;3.43;68.57;100716.86;107986;1257;70724;-69
2023/10/10 03:13:16;;;;;;;9.20;5.10;;;;;;;3.33;68.93;100715.48;108022;1257;71455;-69
2023/10/10 03:15:54;;;;;;;8.10;4.60;;;;;;;3.28;69.13;100716.23;107887;1261;60306;-71
2023/10/10 03:18:29;;;;;;;10.10;4.50;;;;;;;3.26;69.31;100715.83;108073;1255;60043;-69
2023/10/10 03:23:56;;;;;;;9.20;5.30;;;;;;;3.25;69.53;100715.70;108073;1254;71221;-70
2023/10/10 03:26:52;;;;;;;9.90;4.20;;;;;;;3.25;69.83;100721.35;108014;1255;72231;-68
2023/10/10 03:32:31;;;;;;;7.80;4.10;;;;;;;3.24;69.95;100727.89;107974;1255;60325;-69
2023/10/10 03:35:19;;;;;;;10.70;5.00;;;;;;;3.23;70.09;100728.34;108096;1254;73046;-71
2023/10/10 03:38:04;;;;;;;10.70;4.70;;;;;;;3.22;69.99;100731.05;107988;1257;73548;-69
2023/10/10 05:24:14;;;;;;;7.00;4.00;;;;;;;3.52;71.04;100817.80;108144;1254;60338;-68
2023/10/10 05:26:48;;;;;;;8.00;4.20;;;;;;;3.58;70.96;100822.64;107991;1257;72712;-68
2023/10/10 05:29:19;;;;;;;10.30;4.40;;;;;;;3.66;70.83;100819.45;108017;1254;70404;-69
2023/10/10 05:31:47;;;;;;;7.10;4.20;;;;;;;3.76;70.74;100811.73;108065;1258;71481;-69
2023/10/10 05:34:15;;;;;;;7.90;4.20;;;;;;;3.87;70.63;100813.58;107781;1255;60727;-69
2023/10/10 05:36:45;;;;;;;7.80;4.20;;;;;;;3.97;70.61;100812.73;107996;1257;60476;-68
2023/10/10 05:39:17;;;;;;;8.30;3.90;;;;;;;4.04;70.41;100808.49;108000;1257;73960;-68
2023/10/10 05:41:47;;;;;;;;;;;;;;;4.14;70.32;100807.86;107944;1257;71797;-68
2023/10/10 05:44:16;;;;;;;11.40;4.40;;;;;;;4.24;69.99;100805.18;107965;1260;72765;-68
2023/10/10 05:46:44;;;;;;;9.30;5.00;;;;;;;4.35;69.85;100806.20;107987;1254;60394;-68
2023/10/10 05:49:12;;;;;;;9.40;4.90;;;;;;;4.43;69.58;100801.94;107966;1255;60200;-69
2023/10/10 05:51:40;;;;;;;7.40;4.20;;;;;;;4.53;69.35;100807.11;107990;1257;73855;-69
2023/10/10 05:54:10;;;;;;;7.70;4.10;;;;;;;4.65;68.86;100809.61;107963;1257;71264;-68
2023/10/10 05:56:39;;;;;;;7.70;4.10;;;;;;;4.75;68.25;100809.55;107937;1257;74978;-69
2023/10/10 05:59:08;;;;;;;8.80;4.60;;;;;;;4.87;67.88;100811.11;107961;1255;60329;-69
2023/10/10 06:01:37;;;;;;;8.40;4.00;;;;;;;5.03;68.00;100813.58;107914;1257;60614;-70
2023/10/10 06:04:07;;;;;;;8.00;3.80;;;;;;;5.22;67.73;100810.34;107978;1260;73918;-71
2023/10/10 06:06:35;;;;;;;8.40;4.50;;;;;;;5.33;66.86;100805.45;108012;1256;71846;-69
2023/10/10 06:09:05;;;;;;;8.10;3.80;;;;;;;5.41;66.35;100806.70;107998;1255;71072;-69
2023/10/10 06:11:34;;;;;;;8.30;4.40;;;;;;;5.47;66.08;100803.19;107941;1260;60978;-70
2023/10/10 06:14:04;;;;;;;7.70;4.60;;;;;;;5.55;65.70;100805.66;108041;1254;60565;-70
2023/10/10 06:16:32;;;;;;;8.20;4.50;;;;;;;5.58;65.00;100809.09;107983;1255;72875;-70
2023/10/10 06:19:01;;;;;;;7.50;4.00;;;;;;;5.61;64.82;100812.15;107966;1257;72503;-70
2023/10/10 06:21:29;;;;;;;9.60;5.20;;;;;;;5.71;64.72;100818.10;107974;1255;72458;-69
2023/10/10 06:23:57;;;;;;;7.50;3.90;;;;;;;5.85;64.54;100828.48;107908;1256;60398;-70
2023/10/10 06:26:25;;;;;;;7.80;4.10;;;;;;;5.95;63.83;100831.02;108030;1257;60319;-70
2023/10/10 06:28:57;;;;;;;7.50;4.00;;;;;;;6.02;63.45;100834.55;107993;1257;74051;-71
2023/10/10 06:31:33;;;;;;;7.10;3.70;;;;;;;6.12;62.93;100836.32;108030;1259;72761;-70
2023/10/10 06:34:19;;;;;;;8.60;4.80;;;;;;;6.18;62.51;100839.03;107947;1256;71497;-71
2023/10/10 06:36:49;;;;;;;10.00;5.10;;;;;;;6.24;62.32;100836.92;107954;1257;60202;-70
2023/10/10 06:41:54;;;;;;;8.90;5.00;;;;;;;6.36;61.76;100836.16;107970;1255;72853;-69
2023/10/10 06:44:32;;;;;;;7.10;4.20;;;;;;;6.49;61.71;100835.66;108008;1257;71739;-70
2023/10/10 06:47:00;;;;;;;8.10;4.80;;;;;;;6.62;61.57;100838.95;107635;1257;446579;-70
2023/10/10 06:49:43;;;;;;;8.00;4.40;;;;;;;6.75;61.27;100836.54;107923;1257;60980;-69
2023/10/10 06:52:18;;;;;;;7.30;4.10;;;;;;;6.86;60.88;100835.34;107994;1257;59048;-70
2023/10/10 06:54:53;;;;;;;8.40;4.40;;;;;;;6.96;60.71;100831.69;108013;1260;72614;-70
2023/10/10 06:57:35;;;;;;;7.50;4.10;;;;;;;7.11;60.47;100832.21;107957;1259;71451;-70
2023/10/10 07:02:48;;;;;;;7.40;3.70;;;;;;;7.34;59.24;100830.97;107964;1255;61039;-70
2023/10/10 07:05:19;;;;;;;8.90;4.40;;;;;;;7.37;58.80;100833.07;107812;1259;60457;-70
2023/10/10 07:07:52;;;;;;;8.20;4.40;;;;;;;7.42;58.76;100836.59;107896;1254;72815;-71
2023/10/10 07:10:32;;;;;;;7.70;4.00;;;;;;;7.51;58.75;100841.77;107997;1260;74875;-70
2023/10/10 07:13:01;;;;;;;8.20;4.30;;;;;;;7.57;58.57;100835.53;107926;1260;72691;-70
2023/10/10 07:15:36;;;;;;;8.20;4.50;;;;;;;7.62;58.43;100834.67;107937;1257;60342;-70
2023/10/10 07:18:08;;;;;;;8.40;4.50;;;;;;;7.64;58.20;100831.16;108000;1255;59042;-71
2023/10/10 07:23:24;;;;;;;8.50;4.80;;;;;;;7.58;57.71;100831.27;108035;1259;71284;-71
2023/10/10 07:26:01;;;;;;;11.70;5.60;;;;;;;7.54;57.73;100831.99;107962;1260;71434;-71
2023/10/10 07:28:29;;;;;;;11.60;5.20;;;;;;;7.54;57.72;100836.04;108013;1257;60434;-70
2023/10/10 07:30:56;;;;;;;9.10;5.30;;;;;;;7.60;57.87;100836.60;108004;1256;60070;-70
2023/10/10 07:33:29;;;;;;;12.40;5.90;;;;;;;7.67;57.68;100832.34;108012;1257;73816;-70
2023/10/10 07:35:57;;;;;;;9.00;5.10;;;;;;;7.75;57.77;100836.79;107976;1258;72863;-70
2023/10/10 07:38:28;;;;;;;9.60;5.10;;;;;;;7.84;57.66;100829.23;107956;1254;72709;-70
2023/10/10 07:40:56;;;;;;;9.40;5.80;;;;;;;7.95;57.55;100823.30;108041;1254;59690;-70
2023/10/10 07:43:27;;;;;;;12.20;4.90;;;;;;;8.04;57.10;100823.55;107948;1256;61017;-69
2023/10/10 07:45:55;;;;;;;9.10;5.50;;;;;;;8.03;56.84;100819.59;107933;1257;71686;-69
2023/10/10 07:51:06;;;;;;;12.00;5.20;;;;;;;8.11;56.93;100823.80;107915;1260;72470;-69
2023/10/10 07:53:41;;;;;;;10.30;4.80;;;;;;;8.15;56.65;100825.29;107976;1258;60328;-68
2023/10/10 07:56:09;;;;;;;9.00;5.20;;;;;;;8.21;56.60;100823.06;108096;1254;60336;-69
2023/10/10 07:58:43;;;;;;;10.20;5.10;;;;;;;8.30;56.81;100825.27;107946;1254;73811;-69
2023/10/10 08:01:20;;;;;;;8.20;4.50;;;;;;;8.44;56.80;100821.52;107888;1257;73221;-68
2023/10/10 08:03:48;;;;;;;8.50;4.50;;;;;;;8.52;56.44;100822.75;108029;1257;71227;-71
2023/10/10 08:06:22;;;;;;;9.40;4.40;;;;;;;8.60;56.33;100823.56;107963;1255;60303;-69
2023/10/10 08:09:38;;;;;;;8.80;4.70;;;;;;;8.74;56.32;100826.46;108023;1258;59025;-69
2023/10/10 08:11:46;;;;;;;8.60;4.80;;;;;;;8.86;55.83;100823.97;107893;1258;73159;-69
2023/10/10 08:14:17;;;;;;;10.50;5.00;;;;;;;8.88;55.43;100822.40;107997;1259;74998;-70
2023/10/10 08:16:45;;;;;;;9.50;4.60;;;;;;;8.92;55.45;100824.24;107877;1260;72694;-69
2023/10/10 08:19:15;;;;;;;8.50;4.40;;;;;;;8.96;55.24;100818.98;107897;1254;60434;-69
2023/10/10 08:21:49;;;;;;;8.50;4.70;;;;;;;8.98;54.95;100817.36;107948;1256;60295;-69
2023/10/10 08:24:19;;;;;;;8.10;4.90;;;;;;;9.03;54.88;100822.30;107927;1258;73885;-69
2023/10/10 08:26:51;;;;;;;9.10;4.30;;;;;;;9.09;54.60;100825.98;107900;1257;71546;-69
2023/10/10 08:29:27;;;;;;;7.70;4.40;;;;;;;9.18;54.82;100827.04;107897;1259;72943;-69
2023/10/10 08:31:55;;;;;;;7.60;4.60;;;;;;;9.32;54.84;100831.77;107921;1258;60389;-69
2023/10/10 08:34:22;;;;;;;7.30;4.10;;;;;;;9.47;54.63;100831.08;107957;1257;60354;-69
2023/10/10 08:37:02;;;;;;;7.70;4.10;;;;;;;9.58;54.32;100829.45;107929;1257;74020;-69
2023/10/10 08:39:35;;;;;;;7.00;3.30;;;;;;;9.71;54.19;100833.22;108033;1254;71625;-70
2023/10/10 08:42:22;;;;;;;7.50;4.60;;;;;;;9.85;53.48;100826.69;107999;1259;71413;-71
2023/10/10 08:44:55;;;;;;;7.50;3.90;;;;;;;9.95;53.25;100822.98;108032;1258;61944;-70
2023/10/10 08:47:32;;;;;;;8.30;3.60;;;;;;;10.03;52.80;100818.45;107977;1254;60457;-70
2023/10/10 08:50:00;;;;;;;8.40;4.30;;;;;;;10.10;52.55;100816.14;107965;1254;74320;-70
2023/10/10 08:52:28;;;;;;;5.90;3.70;;;;;;;10.21;52.32;100814.10;108006;1258;71768;-70
2023/10/10 08:54:57;;;;;;;7.00;3.80;;;;;;;10.30;52.21;100815.20;107753;1263;72747;-70
2023/10/10 08:57:27;;;;;;;7.60;2.90;;;;;;;10.42;52.46;100821.38;108004;1254;60312;-70
2023/10/10 08:59:55;;;;;;;4.30;2.60;;;;;;;10.57;51.48;100820.59;107950;1254;61380;-70
2023/10/10 09:02:23;;;;;;;6.00;3.00;;;;;;;10.71;50.92;100815.77;108081;1257;73863;-70
2023/10/10 09:04:51;;;;;;;10.00;2.90;;;;;;;10.85;50.78;100821.73;107953;1260;72769;-71
2023/10/10 09:07:27;;;;;;;7.10;2.80;;;;;;;10.99;50.37;100826.95;107982;1256;71868;-69
2023/10/10 09:10:04;;;;;;;6.30;2.70;;;;;;;11.12;50.17;100828.41;107856;1258;60790;-71
2023/10/10 09:12:34;;;;;;;6.50;2.30;;;;;;;11.16;49.61;100829.09;107997;1256;60415;-69
2023/10/10 09:15:16;;;;;;;7.30;2.40;;;;;;;11.10;49.43;100827.91;107854;1258;73668;-70
2023/10/10 09:17:45;;;;;;;5.10;2.70;;;;;;;11.02;49.23;100828.64;107889;1258;72882;-69
2023/10/10 09:20:22;;;;;;;9.40;2.80;;;;;;;11.04;49.24;100822.45;107995;1260;71393;-69
2023/10/10 09:22:55;;;;;;;6.90;2.70;;;;;;;11.11;49.28;100819.27;107913;1257;60466;-68
2023/10/10 09:25:31;;;;;;;5.50;2.50;;;;;;;11.21;49.11;100817.48;107912;1255;60418;-68
2023/10/10 09:28:00;;;;;;;6.60;2.80;;;;;;;11.29;48.17;100821.07;107912;1259;72184;-69
2023/10/10 09:30:31;;;;;;;4.90;2.20;;;;;;;11.37;47.79;100819.69;107963;1257;72742;-68
2023/10/10 09:33:12;;;;;;;6.00;2.70;;;;;;;11.44;47.61;100823.02;107933;1257;73656;-68
2023/10/10 09:35:45;;;;;;;4.80;2.70;;;;;;;11.51;47.21;100820.86;108024;1256;60444;-70
2023/10/10 09:38:19;;;;;;;4.10;2.40;;;;;;;11.62;47.21;100816.45;107993;1258;59923;-68
2023/10/10 09:40:48;;;;;;;5.20;2.60;;;;;;;11.80;47.53;100821.50;107973;1257;73262;-67
2023/10/10 09:43:35;;;;;;;6.40;2.60;;;;;;;12.01;46.96;100817.84;107974;1257;71818;-68
2023/10/10 09:46:19;;;;;;;4.90;2.20;;;;;;;12.21;46.22;100815.00;107964;1257;72677;-68
2023/10/10 09:49:17;;;;;;;5.00;2.20;;;;;;;12.31;45.17;100820.82;107851;1257;60549;-69
2023/10/10 09:54:25;;;;;;;5.30;2.40;;;;;;;12.41;44.28;100816.73;107818;1261;74362;-69
2023/10/10 09:56:56;;;;;;;4.00;2.40;;;;;;;12.42;44.23;100819.62;107857;1257;73205;-68
2023/10/10 09:59:28;;;;;;;4.90;2.20;;;;;;;12.39;43.96;100817.10;107927;1257;71935;-69
2023/10/10 10:02:04;;;;;;;5.80;2.30;;;;;;;12.32;44.24;100817.92;107991;1254;60304;-68
2023/10/10 10:04:37;;;;;;;4.70;2.30;;;;;;;12.30;44.22;100820.59;107963;1254;60299;-70
2023/10/10 10:07:12;;;;;;;4.60;2.20;;;;;;;12.34;44.56;100815.52;107844;1258;72707;-69
2023/10/10 10:09:47;;;;;;;4.90;2.10;;;;;;;12.42;43.75;100826.12;108060;1258;72852;-70
2023/10/10 10:12:53;;;;;;;6.90;2.20;;;;;;;12.43;43.34;100820.59;107843;1256;71088;-69
2023/10/10 10:15:38;;;;;;;6.00;2.30;;;;;;;12.35;43.23;100820.61;107972;1256;60627;-70
2023/10/10 10:18:18;;;;;;;5.30;2.10;;;;;;;12.29;42.94;100817.75;108018;1256;59634;-70
2023/10/10 10:20:47;;;;;;;3.90;1.90;;;;;;;12.26;43.09;100819.61;108018;1259;74312;-70
2023/10/10 10:23:26;;;;;;;4.00;1.90;;;;;;;12.25;43.32;100814.70;107823;1258;71287;-70
2023/10/10 10:26:04;;;;;;;3.90;1.90;;;;;;;12.27;43.13;100817.52;107976;1257;71629;-71
2023/10/10 10:28:35;;;;;;;4.00;2.00;;;;;;;12.22;43.18;100818.85;107940;1257;61093;-70
2023/10/10 10:31:30;;;;;;;3.00;1.40;;;;;;;12.24;43.69;100825.40;107954;1257;60666;-69
2023/10/10 10:34:08;;;;;;;3.20;1.40;;;;;;;12.43;43.20;100823.81;107891;1257;72646;-69
2023/10/10 10:36:42;;;;;;;3.60;1.50;;;;;;;12.60;42.37;100822.70;107960;1256;72765;-69
2023/10/10 10:39:19;;;;;;;3.50;1.40;;;;;;;12.76;42.11;100818.66;108137;1257;71138;-68
2023/10/10 10:41:55;;;;;;;4.20;1.50;;;;;;;12.82;41.25;100820.80;107919;1259;59496;-68
2023/10/10 10:44:58;;;;;;;4.00;1.70;;;;;;;12.80;40.31;100823.64;107996;1254;60187;-68
2023/10/10 10:47:39;;;;;;;3.50;1.60;;;;;;;12.75;40.18;100823.63;108097;1254;73945;-68
2023/10/10 10:50:27;;;;;;;4.60;1.50;;;;;;;12.74;39.96;100823.30;108101;1254;71172;-68
2023/10/10 10:52:59;;;;;;;3.70;1.60;;;;;;;12.66;39.63;100828.44;107973;1254;71909;-69
2023/10/10 10:55:27;;;;;;;4.30;1.50;;;;;;;12.58;39.45;100827.71;107922;1254;60383;-69
2023/10/10 11:03:36;;;;;;;4.20;1.70;;;;;;;12.47;40.65;100834.59;107907;1257;74893;-69
2023/10/10 11:06:08;;;;;;;2.80;1.40;;;;;;;12.52;40.61;100825.52;107995;1255;73292;-69
2023/10/10 11:11:27;;;;;;;3.50;1.40;;;;;;;12.77;39.91;100831.77;107996;1254;60501;-68
2023/10/10 11:16:46;;;;;;;4.20;1.50;;;;;;;12.84;39.10;100833.31;107900;1255;72625;-68
2023/10/10 11:21:50;;;;;;;3.70;1.20;;;;;;;12.85;38.26;100830.73;107984;1256;60460;-72
2023/10/10 11:24:25;;;;;;;2.20;1.10;;;;;;;12.83;38.14;100832.17;108006;1256;60364;-68
2023/10/10 11:29:43;;;;;;;3.50;1.40;;;;;;;12.57;38.46;100844.21;107919;1254;72567;-69
2023/10/10 11:32:12;;;;;;;;;;;;;;;12.44;38.56;100846.86;107901;1254;72680;-68
2023/10/10 11:34:46;;;;;;;3.50;1.50;;;;;;;12.33;38.97;100849.70;107932;1256;60590;-69
2023/10/10 11:37:25;;;;;;;3.70;1.50;;;;;;;12.22;39.76;100854.42;107926;1256;60466;-68
2023/10/10 11:40:19;;;;;;;4.40;1.60;;;;;;;12.15;40.08;100853.78;107987;1257;73804;-70
2023/10/10 11:42:47;;;;;;;5.10;1.50;;;;;;;12.10;39.85;100859.02;107968;1254;73245;-69
2023/10/10 11:45:19;;;;;;;5.10;1.30;;;;;;;12.06;40.07;100857.92;107869;1254;75004;-69
2023/10/10 11:47:47;;;;;;;;;;;;;;;12.06;40.21;100860.59;107981;1257;60415;-69
2023/10/10 11:50:22;;;;;;;3.70;1.30;;;;;;;12.00;40.09;100860.45;107916;1257;60452;-69
2023/10/10 11:52:53;;;;;;;3.70;1.70;;;;;;;12.00;40.39;100862.44;107978;1254;73885;-70
2023/10/10 11:55:22;;;;;;;5.60;1.60;;;;;;;12.06;40.34;100864.51;108032;1259;72871;-69
2023/10/10 11:57:50;;;;;;;5.20;1.80;;;;;;;12.13;40.26;100863.31;107966;1254;71655;-69
2023/10/10 12:00:38;;;;;;;3.70;1.40;;;;;;;12.25;40.12;100860.10;107951;1257;59058;-69
2023/10/10 12:03:06;;;;;;;4.30;1.50;;;;;;;12.36;40.03;100858.93;107997;1254;62623;-69
2023/10/10 12:08:05;;;;;;;4.40;1.50;;;;;;;12.44;38.80;100858.86;108003;1254;71615;-69
2023/10/10 12:10:47;;;;;;;3.30;1.30;;;;;;;12.41;38.58;100859.22;107906;1254;76121;-70
2023/10/10 12:16:07;;;;;;;3.20;1.40;;;;;;;12.26;38.83;100862.42;107936;1256;60280;-70
2023/10/10 12:18:35;;;;;;;4.10;1.30;;;;;;;12.19;39.05;100869.18;108027;1254;73839;-70
2023/10/10 12:21:04;;;;;;;5.00;1.70;;;;;;;12.16;39.30;100873.29;108027;1260;74906;-69
2023/10/10 12:23:31;;;;;;;4.50;1.50;;;;;;;12.14;39.51;100870.55;107883;1257;71741;-70
2023/10/10 12:25:59;;;;;;;3.40;1.40;;;;;;;12.14;39.54;100867.38;108070;1257;60453;-70
2023/10/10 12:28:27;;;;;;;3.30;1.60;;;;;;;12.14;39.45;100866.47;108060;1257;60446;-70
2023/10/10 12:31:03;;;;;;;3.50;1.40;;;;;;;12.17;39.76;100866.23;108015;1256;72569;-70
2023/10/10 12:33:31;;;;;;;3.30;1.20;;;;;;;12.20;39.55;100868.76;108021;1254;73085;-69
2023/10/10 12:35:59;;;;;;;5.70;1.30;;;;;;;12.21;38.94;100867.80;107918;1256;76186;-68
2023/10/10 12:38:32;;;;;;;3.00;1.20;;;;;;;12.16;38.56;100874.80;108006;1254;61431;-70
2023/10/10 12:41:00;;;;;;;3.80;1.00;;;;;;;12.14;38.57;100881.63;107986;1256;60316;-68
2023/10/10 12:43:28;;;;;;;3.80;1.20;;;;;;;12.11;38.46;100876.69;107959;1254;75944;-68
2023/10/10 12:46:00;;;;;;;3.90;1.10;;;;;;;12.10;38.79;100879.84;107887;1257;72676;-69
2023/10/10 12:48:31;;;;;;;2.90;1.30;;;;;;;12.15;39.08;100885.13;107971;1256;72912;-69
2023/10/10 12:51:01;;;;;;;3.30;1.00;;;;;;;12.26;39.15;100880.56;107925;1257;60041;-68
2023/10/10 12:53:39;;;;;;;3.20;1.00;;;;;;;12.37;39.10;100878.92;107936;1254;60428;-69
2023/10/10 12:56:11;;;;;;;3.60;1.20;;;;;;;12.43;38.61;100872.61;107852;1257;73878;-69
2023/10/10 12:58:51;;;;;;;;;;;;;;;12.45;38.70;100873.92;108008;1254;71760;-70
2023/10/10 13:01:23;;;;;;;4.20;1.40;;;;;;;12.48;38.74;100878.48;107933;1257;72460;-70
2023/10/10 13:03:51;;;;;;;4.50;1.30;;;;;;;12.47;38.38;100881.21;107838;1257;60332;-67
2023/10/10 13:06:22;;;;;;;2.90;1.10;;;;;;;12.46;38.07;100880.93;107960;1257;60271;-69
2023/10/10 13:11:32;;;;;;;3.80;1.30;;;;;;;12.36;38.07;100897.49;108005;1257;72845;-69
2023/10/10 13:14:10;;;;;;;4.90;1.10;;;;;;;12.31;38.49;100898.76;108041;1254;72463;-70
2023/10/10 13:19:12;;;;;;;3.30;1.10;;;;;;;12.24;38.30;100898.88;107877;1256;60387;-69
2023/10/10 13:21:41;;;;;;;3.60;0.90;;;;;;;12.23;38.20;100903.74;107895;1257;72644;-70
2023/10/10 13:24:13;;;;;;;1.80;0.90;;;;;;;12.21;38.27;100902.08;108457;1256;71470;-68
2023/10/10 13:26:45;;;;;;;5.20;1.10;;;;;;;12.28;38.41;100905.29;107910;1256;73487;-69
2023/10/10 13:29:15;;;;;;;3.40;1.20;;;;;;;12.39;38.43;100908.33;107923;1256;61567;-69
2023/10/10 13:31:44;;;;;;;3.10;1.10;;;;;;;12.51;38.50;100907.75;107948;1256;60436;-69
2023/10/10 13:34:16;;;;;;;2.60;1.20;;;;;;;12.56;38.35;100902.73;108090;1254;72247;-69
2023/10/10 13:36:44;;;;;;;;;;;;;;;12.59;38.54;100903.82;107931;1254;72708;-68
2023/10/10 13:39:16;;;;;;;1.70;0.70;;;;;;;12.57;37.79;100909.81;107903;1254;71457;-69
2023/10/10 13:41:44;;;;;;;2.80;0.80;;;;;;;12.49;37.70;100913.16;108011;1256;61343;-68
2023/10/10 13:44:12;;;;;;;2.30;1.00;;;;;;;12.42;38.10;100912.10;108025;1256;61266;-68
2023/10/10 13:46:40;;;;;;;3.80;1.20;;;;;;;12.34;37.89;100915.00;108085;1256;77011;-68
2023/10/10 13:49:08;;;;;;;3.50;0.90;;;;;;;12.27;38.00;100911.43;108001;1257;72542;-68
2023/10/10 13:51:40;;;;;;;2.50;0.80;;;;;;;12.20;38.18;100916.69;107893;1257;72690;-69
2023/10/10 13:54:08;;;;;;;3.00;1.00;;;;;;;12.13;38.35;100916.38;107993;1256;62067;-69
2023/10/10 13:56:36;;;;;;;5.00;1.20;;;;;;;12.10;38.67;100915.77;107980;1256;60463;-69
2023/10/10 13:59:04;;;;;;;1.80;1.10;;;;;;;12.09;39.02;100919.14;107851;1255;76753;-69
2023/10/10 14:01:36;;;;;;;2.40;1.00;;;;;;;12.10;39.34;100924.19;108039;1256;72881;-69
2023/10/10 14:06:54;;;;;;;1.90;0.90;;;;;;;12.16;39.65;100926.20;107864;1254;61326;-69
2023/10/10 14:09:22;;;;;;;1.60;0.80;;;;;;;12.14;39.16;100920.19;107937;1256;61256;-69
2023/10/10 14:12:01;;;;;;;3.20;0.90;;;;;;;12.07;39.33;100925.23;107849;1256;78075;-68
2023/10/10 14:14:30;;;;;;;3.40;1.10;;;;;;;11.97;39.41;100928.21;107946;1254;71762;-70
2023/10/10 14:16:58;;;;;;;1.20;0.80;;;;;;;11.89;39.27;100939.07;108025;1254;72615;-69
2023/10/10 14:19:26;;;;;;;1.90;0.90;;;;;;;11.79;39.27;100942.45;108055;1257;62195;-68
2023/10/10 14:21:54;;;;;;;2.80;0.80;;;;;;;11.70;39.41;100950.56;107906;1256;61106;-69
2023/10/10 14:24:22;;;;;;;2.90;0.90;;;;;;;11.61;39.77;100951.39;107925;1257;75029;-68
2023/10/10 14:26:49;;;;;;;3.10;1.10;;;;;;;11.56;40.08;100959.91;107874;1257;71243;-67
2023/10/10 14:29:18;;;;;;;1.80;0.80;;;;;;;11.50;40.14;100961.61;107852;1254;73603;-69
2023/10/10 14:31:47;;;;;;;2.70;1.00;;;;;;;11.47;40.27;100967.78;107904;1254;63605;-69
2023/10/10 14:34:19;;;;;;;3.40;1.00;;;;;;;11.42;40.18;100967.91;107983;1259;61244;-68
2023/10/10 14:36:51;;;;;;;3.80;0.90;;;;;;;11.37;40.34;100968.33;108141;1254;74630;-69